Princeton, Kentucky
Current Conditions -  °F | °C
As of 12:15 AM on Monday 26 Jan 2015 (Local Time) from K5M9 Reporting Station
Overcast Overcast  
Wind Chill: 21°   Ceiling: 900
Heat Index: 32°   Visibility: 10mi
Dew Point: 31°   Wind: 17mph
Humidity: 94%   Direction: 340°NNW
Pressure: 29.86"   Gusts: 24mph
Location:  37.11°N, 87.88°W
Report Text: K5M9 260615Z AUTO 34015G21KT 10SM OVC009 00/M01 A2986 RMK AO2 T00001008
Loading
Personal Weather Stations






























Interactive Weather Map New forecast layout! Learn more

10-Day Weather Forecast

Advertisements
Track Severe Weather on mobile